sensor_id;sensor_type;location;lat;lon;timestamp;P1;durP1;ratioP1;P2;durP2;ratioP2
75628;SDS011;64213;46.452;16.994;2022-10-31T00:02:44;58.97;;;7.80;;
75628;SDS011;64213;46.452;16.994;2022-10-31T00:05:47;87.82;;;8.55;;
75628;SDS011;64213;46.452;16.994;2022-10-31T00:08:54;84.53;;;8.15;;
75628;SDS011;64213;46.452;16.994;2022-10-31T00:11:58;70.22;;;8.15;;
75628;SDS011;64213;46.452;16.994;2022-10-31T00:15:00;82.12;;;8.30;;
75628;SDS011;64213;46.452;16.994;2022-10-31T00:18:03;72.13;;;8.03;;
75628;SDS011;64213;46.452;16.994;2022-10-31T00:21:06;61.63;;;8.10;;
75628;SDS011;64213;46.452;16.994;2022-10-31T00:24:08;76.20;;;8.43;;
75628;SDS011;64213;46.452;16.994;2022-10-31T00:27:10;77.07;;;8.93;;
75628;SDS011;64213;46.452;16.994;2022-10-31T00:30:12;76.12;;;9.18;;
75628;SDS011;64213;46.452;16.994;2022-10-31T00:33:14;57.63;;;8.13;;
75628;SDS011;64213;46.452;16.994;2022-10-31T00:36:17;66.70;;;9.05;;
75628;SDS011;64213;46.452;16.994;2022-10-31T00:39:20;56.03;;;8.88;;
75628;SDS011;64213;46.452;16.994;2022-10-31T00:42:22;51.95;;;8.77;;
75628;SDS011;64213;46.452;16.994;2022-10-31T00:45:24;58.67;;;8.82;;
75628;SDS011;64213;46.452;16.994;2022-10-31T00:48:27;39.67;;;7.63;;
75628;SDS011;64213;46.452;16.994;2022-10-31T00:51:29;38.47;;;8.13;;
75628;SDS011;64213;46.452;16.994;2022-10-31T00:54:31;59.80;;;8.50;;
75628;SDS011;64213;46.452;16.994;2022-10-31T00:57:33;44.47;;;7.53;;
75628;SDS011;64213;46.452;16.994;2022-10-31T01:00:35;49.67;;;8.23;;
75628;SDS011;64213;46.452;16.994;2022-10-31T01:03:37;44.43;;;8.20;;
75628;SDS011;64213;46.452;16.994;2022-10-31T01:06:40;62.75;;;7.93;;
75628;SDS011;64213;46.452;16.994;2022-10-31T01:09:42;65.75;;;8.18;;
75628;SDS011;64213;46.452;16.994;2022-10-31T01:12:45;69.95;;;8.57;;
75628;SDS011;64213;46.452;16.994;2022-10-31T01:15:53;57.08;;;8.32;;
75628;SDS011;64213;46.452;16.994;2022-10-31T01:18:56;55.70;;;7.80;;
75628;SDS011;64213;46.452;16.994;2022-10-31T01:21:58;50.78;;;7.78;;
75628;SDS011;64213;46.452;16.994;2022-10-31T01:25:00;34.85;;;7.28;;
75628;SDS011;64213;46.452;16.994;2022-10-31T01:28:02;50.65;;;7.30;;
75628;SDS011;64213;46.452;16.994;2022-10-31T01:31:06;65.22;;;9.43;;
75628;SDS011;64213;46.452;16.994;2022-10-31T01:34:13;83.63;;;9.63;;
75628;SDS011;64213;46.452;16.994;2022-10-31T01:37:17;75.60;;;9.77;;
75628;SDS011;64213;46.452;16.994;2022-10-31T01:40:19;72.95;;;9.90;;
75628;SDS011;64213;46.452;16.994;2022-10-31T01:43:20;81.03;;;9.88;;
75628;SDS011;64213;46.452;16.994;2022-10-31T01:46:31;65.45;;;8.55;;
75628;SDS011;64213;46.452;16.994;2022-10-31T01:52:40;81.70;;;10.60;;
75628;SDS011;64213;46.452;16.994;2022-10-31T01:55:47;53.35;;;10.82;;
75628;SDS011;64213;46.452;16.994;2022-10-31T01:58:49;70.50;;;10.50;;
75628;SDS011;64213;46.452;16.994;2022-10-31T02:01:51;79.00;;;11.18;;
75628;SDS011;64213;46.452;16.994;2022-10-31T02:04:55;89.97;;;11.23;;
75628;SDS011;64213;46.452;16.994;2022-10-31T02:08:09;85.97;;;11.25;;
75628;SDS011;64213;46.452;16.994;2022-10-31T02:11:18;105.60;;;11.88;;
75628;SDS011;64213;46.452;16.994;2022-10-31T02:14:22;137.37;;;11.80;;
75628;SDS011;64213;46.452;16.994;2022-10-31T02:17:25;138.80;;;12.20;;
75628;SDS011;64213;46.452;16.994;2022-10-31T02:20:29;141.77;;;12.77;;
75628;SDS011;64213;46.452;16.994;2022-10-31T02:33:23;53.28;;;8.50;;
75628;SDS011;64213;46.452;16.994;2022-10-31T02:39:37;72.68;;;10.63;;
75628;SDS011;64213;46.452;16.994;2022-10-31T02:42:57;59.63;;;10.65;;
75628;SDS011;64213;46.452;16.994;2022-10-31T02:46:11;81.25;;;11.05;;
75628;SDS011;64213;46.452;16.994;2022-10-31T02:52:32;68.07;;;9.70;;
75628;SDS011;64213;46.452;16.994;2022-10-31T02:58:40;76.43;;;11.05;;
75628;SDS011;64213;46.452;16.994;2022-10-31T03:01:56;48.25;;;9.10;;
75628;SDS011;64213;46.452;16.994;2022-10-31T03:08:59;93.13;;;11.07;;
75628;SDS011;64213;46.452;16.994;2022-10-31T03:12:14;76.68;;;11.25;;
75628;SDS011;64213;46.452;16.994;2022-10-31T03:15:25;69.22;;;10.00;;
75628;SDS011;64213;46.452;16.994;2022-10-31T03:18:33;75.30;;;10.40;;
75628;SDS011;64213;46.452;16.994;2022-10-31T03:21:51;63.58;;;11.50;;
75628;SDS011;64213;46.452;16.994;2022-10-31T03:25:07;53.73;;;10.93;;
75628;SDS011;64213;46.452;16.994;2022-10-31T03:28:11;62.35;;;9.65;;
75628;SDS011;64213;46.452;16.994;2022-10-31T03:31:16;46.75;;;9.73;;
75628;SDS011;64213;46.452;16.994;2022-10-31T03:34:20;50.97;;;8.77;;
75628;SDS011;64213;46.452;16.994;2022-10-31T03:37:22;59.05;;;10.27;;
75628;SDS011;64213;46.452;16.994;2022-10-31T03:40:33;50.80;;;10.10;;
75628;SDS011;64213;46.452;16.994;2022-10-31T03:43:40;77.95;;;11.18;;
75628;SDS011;64213;46.452;16.994;2022-10-31T03:46:46;39.90;;;8.32;;
75628;SDS011;64213;46.452;16.994;2022-10-31T03:49:48;33.03;;;9.30;;
75628;SDS011;64213;46.452;16.994;2022-10-31T03:56:12;57.43;;;9.67;;
75628;SDS011;64213;46.452;16.994;2022-10-31T03:59:31;59.35;;;9.75;;
75628;SDS011;64213;46.452;16.994;2022-10-31T04:02:38;54.22;;;9.85;;
75628;SDS011;64213;46.452;16.994;2022-10-31T04:05:45;60.90;;;10.38;;
75628;SDS011;64213;46.452;16.994;2022-10-31T04:08:52;34.78;;;7.90;;
75628;SDS011;64213;46.452;16.994;2022-10-31T04:12:00;62.47;;;8.67;;
75628;SDS011;64213;46.452;16.994;2022-10-31T04:15:07;62.65;;;10.23;;
75628;SDS011;64213;46.452;16.994;2022-10-31T04:18:12;55.97;;;9.23;;
75628;SDS011;64213;46.452;16.994;2022-10-31T04:21:14;47.78;;;10.05;;
75628;SDS011;64213;46.452;16.994;2022-10-31T04:24:16;57.10;;;8.90;;
75628;SDS011;64213;46.452;16.994;2022-10-31T04:27:18;60.63;;;9.27;;
75628;SDS011;64213;46.452;16.994;2022-10-31T04:30:21;38.40;;;9.43;;
75628;SDS011;64213;46.452;16.994;2022-10-31T04:33:23;41.08;;;9.10;;
75628;SDS011;64213;46.452;16.994;2022-10-31T04:36:25;97.07;;;10.05;;
75628;SDS011;64213;46.452;16.994;2022-10-31T04:39:27;49.40;;;8.35;;
75628;SDS011;64213;46.452;16.994;2022-10-31T04:42:29;33.80;;;6.37;;
75628;SDS011;64213;46.452;16.994;2022-10-31T04:45:32;42.17;;;7.62;;
75628;SDS011;64213;46.452;16.994;2022-10-31T04:48:34;27.58;;;7.28;;
75628;SDS011;64213;46.452;16.994;2022-10-31T04:51:36;59.72;;;9.27;;
75628;SDS011;64213;46.452;16.994;2022-10-31T04:54:38;34.60;;;9.43;;
75628;SDS011;64213;46.452;16.994;2022-10-31T04:57:40;45.30;;;8.73;;
75628;SDS011;64213;46.452;16.994;2022-10-31T05:00:43;30.73;;;9.20;;
75628;SDS011;64213;46.452;16.994;2022-10-31T05:03:45;42.45;;;9.18;;
75628;SDS011;64213;46.452;16.994;2022-10-31T05:06:48;38.47;;;9.43;;
75628;SDS011;64213;46.452;16.994;2022-10-31T05:09:50;38.60;;;8.55;;
75628;SDS011;64213;46.452;16.994;2022-10-31T05:12:55;48.47;;;9.13;;
75628;SDS011;64213;46.452;16.994;2022-10-31T05:15:59;33.42;;;8.85;;
75628;SDS011;64213;46.452;16.994;2022-10-31T05:19:01;46.67;;;9.48;;
75628;SDS011;64213;46.452;16.994;2022-10-31T05:22:03;42.92;;;7.25;;
75628;SDS011;64213;46.452;16.994;2022-10-31T05:25:06;58.47;;;9.48;;
75628;SDS011;64213;46.452;16.994;2022-10-31T05:28:08;56.17;;;8.27;;
75628;SDS011;64213;46.452;16.994;2022-10-31T05:31:10;52.20;;;9.10;;
75628;SDS011;64213;46.452;16.994;2022-10-31T05:34:12;69.75;;;10.05;;
75628;SDS011;64213;46.452;16.994;2022-10-31T05:37:14;61.88;;;9.35;;
75628;SDS011;64213;46.452;16.994;2022-10-31T05:40:17;58.42;;;11.40;;
75628;SDS011;64213;46.452;16.994;2022-10-31T05:43:20;63.57;;;9.40;;
75628;SDS011;64213;46.452;16.994;2022-10-31T05:46:22;49.05;;;10.00;;
75628;SDS011;64213;46.452;16.994;2022-10-31T05:49:24;68.03;;;10.07;;
75628;SDS011;64213;46.452;16.994;2022-10-31T05:52:26;51.08;;;9.25;;
75628;SDS011;64213;46.452;16.994;2022-10-31T05:55:28;35.25;;;8.75;;
75628;SDS011;64213;46.452;16.994;2022-10-31T05:58:31;57.93;;;9.20;;
75628;SDS011;64213;46.452;16.994;2022-10-31T06:01:33;31.08;;;8.88;;
75628;SDS011;64213;46.452;16.994;2022-10-31T06:04:35;42.72;;;7.12;;
75628;SDS011;64213;46.452;16.994;2022-10-31T06:07:37;67.55;;;9.60;;
75628;SDS011;64213;46.452;16.994;2022-10-31T06:10:39;66.28;;;9.57;;
75628;SDS011;64213;46.452;16.994;2022-10-31T06:13:41;55.53;;;9.20;;
75628;SDS011;64213;46.452;16.994;2022-10-31T06:16:43;40.97;;;8.95;;
75628;SDS011;64213;46.452;16.994;2022-10-31T06:19:45;51.10;;;8.93;;
75628;SDS011;64213;46.452;16.994;2022-10-31T06:22:47;42.08;;;8.73;;
75628;SDS011;64213;46.452;16.994;2022-10-31T06:25:49;55.70;;;8.75;;
75628;SDS011;64213;46.452;16.994;2022-10-31T06:28:52;62.37;;;8.33;;
75628;SDS011;64213;46.452;16.994;2022-10-31T06:31:54;50.12;;;8.68;;
75628;SDS011;64213;46.452;16.994;2022-10-31T06:34:56;46.47;;;9.85;;
75628;SDS011;64213;46.452;16.994;2022-10-31T06:37:58;31.30;;;8.68;;
75628;SDS011;64213;46.452;16.994;2022-10-31T06:41:04;38.08;;;9.00;;
75628;SDS011;64213;46.452;16.994;2022-10-31T06:44:07;45.30;;;8.57;;
75628;SDS011;64213;46.452;16.994;2022-10-31T06:47:09;59.65;;;9.43;;
75628;SDS011;64213;46.452;16.994;2022-10-31T06:50:11;56.88;;;9.45;;
75628;SDS011;64213;46.452;16.994;2022-10-31T06:53:13;51.60;;;9.23;;
75628;SDS011;64213;46.452;16.994;2022-10-31T06:56:16;33.17;;;9.40;;
75628;SDS011;64213;46.452;16.994;2022-10-31T06:59:18;35.87;;;9.53;;
75628;SDS011;64213;46.452;16.994;2022-10-31T07:02:20;33.95;;;9.10;;
75628;SDS011;64213;46.452;16.994;2022-10-31T07:05:22;45.88;;;8.77;;
75628;SDS011;64213;46.452;16.994;2022-10-31T07:08:24;47.03;;;9.30;;
75628;SDS011;64213;46.452;16.994;2022-10-31T07:11:26;44.28;;;10.00;;
75628;SDS011;64213;46.452;16.994;2022-10-31T07:14:28;41.60;;;10.17;;
75628;SDS011;64213;46.452;16.994;2022-10-31T07:17:30;35.72;;;10.15;;
75628;SDS011;64213;46.452;16.994;2022-10-31T07:20:33;34.80;;;9.98;;
75628;SDS011;64213;46.452;16.994;2022-10-31T07:23:35;62.15;;;10.55;;
75628;SDS011;64213;46.452;16.994;2022-10-31T07:26:37;32.33;;;10.13;;
75628;SDS011;64213;46.452;16.994;2022-10-31T07:29:39;32.23;;;8.53;;
75628;SDS011;64213;46.452;16.994;2022-10-31T07:32:42;32.10;;;9.48;;
75628;SDS011;64213;46.452;16.994;2022-10-31T07:35:45;34.28;;;9.88;;
75628;SDS011;64213;46.452;16.994;2022-10-31T07:38:47;25.83;;;8.30;;
75628;SDS011;64213;46.452;16.994;2022-10-31T07:41:49;42.62;;;9.55;;
75628;SDS011;64213;46.452;16.994;2022-10-31T07:44:51;30.50;;;8.53;;
75628;SDS011;64213;46.452;16.994;2022-10-31T07:47:58;40.15;;;8.93;;
75628;SDS011;64213;46.452;16.994;2022-10-31T07:51:00;34.85;;;9.45;;
75628;SDS011;64213;46.452;16.994;2022-10-31T07:54:03;35.42;;;9.35;;
75628;SDS011;64213;46.452;16.994;2022-10-31T07:57:05;31.05;;;10.43;;
75628;SDS011;64213;46.452;16.994;2022-10-31T08:00:07;21.60;;;9.13;;
75628;SDS011;64213;46.452;16.994;2022-10-31T08:03:12;21.42;;;9.93;;
75628;SDS011;64213;46.452;16.994;2022-10-31T08:06:16;34.40;;;9.40;;
75628;SDS011;64213;46.452;16.994;2022-10-31T08:09:18;29.23;;;9.93;;
75628;SDS011;64213;46.452;16.994;2022-10-31T08:12:20;30.42;;;12.30;;
75628;SDS011;64213;46.452;16.994;2022-10-31T08:15:22;30.03;;;11.17;;
75628;SDS011;64213;46.452;16.994;2022-10-31T08:18:24;35.40;;;13.23;;
75628;SDS011;64213;46.452;16.994;2022-10-31T08:21:26;28.42;;;11.27;;
75628;SDS011;64213;46.452;16.994;2022-10-31T08:24:28;55.67;;;11.50;;
75628;SDS011;64213;46.452;16.994;2022-10-31T08:27:30;28.02;;;12.57;;
75628;SDS011;64213;46.452;16.994;2022-10-31T08:30:33;26.30;;;11.87;;
75628;SDS011;64213;46.452;16.994;2022-10-31T08:33:37;29.05;;;12.13;;
75628;SDS011;64213;46.452;16.994;2022-10-31T08:36:39;28.52;;;13.38;;
75628;SDS011;64213;46.452;16.994;2022-10-31T08:39:41;27.23;;;13.30;;
75628;SDS011;64213;46.452;16.994;2022-10-31T08:42:43;39.33;;;19.37;;
75628;SDS011;64213;46.452;16.994;2022-10-31T08:45:49;31.57;;;13.23;;
75628;SDS011;64213;46.452;16.994;2022-10-31T08:48:51;29.77;;;14.25;;
75628;SDS011;64213;46.452;16.994;2022-10-31T08:51:53;36.63;;;16.83;;
75628;SDS011;64213;46.452;16.994;2022-10-31T08:54:55;30.20;;;15.13;;
75628;SDS011;64213;46.452;16.994;2022-10-31T08:57:57;28.20;;;14.27;;
75628;SDS011;64213;46.452;16.994;2022-10-31T09:01:01;30.97;;;13.50;;
75628;SDS011;64213;46.452;16.994;2022-10-31T09:04:03;28.27;;;13.75;;
75628;SDS011;64213;46.452;16.994;2022-10-31T09:07:05;28.10;;;13.55;;
75628;SDS011;64213;46.452;16.994;2022-10-31T09:10:22;31.92;;;14.40;;
75628;SDS011;64213;46.452;16.994;2022-10-31T09:13:25;27.65;;;12.68;;
75628;SDS011;64213;46.452;16.994;2022-10-31T09:16:28;23.67;;;11.80;;
75628;SDS011;64213;46.452;16.994;2022-10-31T09:19:30;23.77;;;11.38;;
75628;SDS011;64213;46.452;16.994;2022-10-31T09:22:32;27.98;;;12.32;;
75628;SDS011;64213;46.452;16.994;2022-10-31T09:25:34;23.90;;;12.10;;
75628;SDS011;64213;46.452;16.994;2022-10-31T09:28:37;26.05;;;12.37;;
75628;SDS011;64213;46.452;16.994;2022-10-31T09:31:39;28.93;;;13.47;;
75628;SDS011;64213;46.452;16.994;2022-10-31T09:34:45;26.10;;;12.50;;
75628;SDS011;64213;46.452;16.994;2022-10-31T09:37:53;27.58;;;13.88;;
75628;SDS011;64213;46.452;16.994;2022-10-31T09:44:33;25.92;;;13.77;;
75628;SDS011;64213;46.452;16.994;2022-10-31T09:48:52;29.43;;;13.13;;
75628;SDS011;64213;46.452;16.994;2022-10-31T09:54:38;24.02;;;12.35;;
75628;SDS011;64213;46.452;16.994;2022-10-31T09:57:46;28.87;;;12.52;;
75628;SDS011;64213;46.452;16.994;2022-10-31T10:00:49;26.87;;;13.20;;
75628;SDS011;64213;46.452;16.994;2022-10-31T10:03:53;24.10;;;12.47;;
75628;SDS011;64213;46.452;16.994;2022-10-31T10:06:59;26.92;;;13.20;;
75628;SDS011;64213;46.452;16.994;2022-10-31T10:16:42;26.85;;;12.95;;
75628;SDS011;64213;46.452;16.994;2022-10-31T10:23:23;25.80;;;12.68;;
75628;SDS011;64213;46.452;16.994;2022-10-31T10:26:36;25.77;;;13.05;;
75628;SDS011;64213;46.452;16.994;2022-10-31T10:29:44;24.52;;;12.55;;
75628;SDS011;64213;46.452;16.994;2022-10-31T10:33:19;28.48;;;13.48;;
75628;SDS011;64213;46.452;16.994;2022-10-31T10:39:30;28.12;;;13.25;;
75628;SDS011;64213;46.452;16.994;2022-10-31T10:42:47;27.80;;;13.48;;
75628;SDS011;64213;46.452;16.994;2022-10-31T10:46:19;30.20;;;14.98;;
75628;SDS011;64213;46.452;16.994;2022-10-31T10:49:51;28.80;;;14.32;;
75628;SDS011;64213;46.452;16.994;2022-10-31T10:56:35;32.17;;;15.02;;
75628;SDS011;64213;46.452;16.994;2022-10-31T10:59:42;30.30;;;15.88;;
75628;SDS011;64213;46.452;16.994;2022-10-31T11:02:44;35.00;;;16.67;;
75628;SDS011;64213;46.452;16.994;2022-10-31T11:08:52;33.83;;;15.37;;
75628;SDS011;64213;46.452;16.994;2022-10-31T11:11:55;33.70;;;15.23;;
75628;SDS011;64213;46.452;16.994;2022-10-31T11:15:00;33.30;;;16.70;;
75628;SDS011;64213;46.452;16.994;2022-10-31T11:18:12;30.73;;;15.88;;
75628;SDS011;64213;46.452;16.994;2022-10-31T11:21:27;33.53;;;16.62;;
75628;SDS011;64213;46.452;16.994;2022-10-31T11:24:35;34.30;;;16.13;;
75628;SDS011;64213;46.452;16.994;2022-10-31T11:27:40;33.25;;;16.33;;
75628;SDS011;64213;46.452;16.994;2022-10-31T11:30:46;34.13;;;16.45;;
75628;SDS011;64213;46.452;16.994;2022-10-31T11:33:53;31.83;;;16.02;;
75628;SDS011;64213;46.452;16.994;2022-10-31T11:37:12;26.40;;;13.05;;
75628;SDS011;64213;46.452;16.994;2022-10-31T11:40:15;31.40;;;15.70;;
75628;SDS011;64213;46.452;16.994;2022-10-31T11:43:22;31.23;;;16.70;;
75628;SDS011;64213;46.452;16.994;2022-10-31T11:49:39;32.90;;;16.02;;
75628;SDS011;64213;46.452;16.994;2022-10-31T11:52:42;33.40;;;16.95;;
75628;SDS011;64213;46.452;16.994;2022-10-31T11:55:45;31.97;;;15.80;;
75628;SDS011;64213;46.452;16.994;2022-10-31T11:59:12;35.92;;;17.25;;
75628;SDS011;64213;46.452;16.994;2022-10-31T12:02:18;31.70;;;16.50;;
75628;SDS011;64213;46.452;16.994;2022-10-31T12:05:23;31.45;;;16.50;;
75628;SDS011;64213;46.452;16.994;2022-10-31T12:08:31;33.90;;;16.77;;
75628;SDS011;64213;46.452;16.994;2022-10-31T12:15:26;29.87;;;15.43;;
75628;SDS011;64213;46.452;16.994;2022-10-31T12:18:46;30.98;;;16.60;;
75628;SDS011;64213;46.452;16.994;2022-10-31T12:35:21;36.45;;;18.40;;
75628;SDS011;64213;46.452;16.994;2022-10-31T12:42:17;34.90;;;17.73;;
75628;SDS011;64213;46.452;16.994;2022-10-31T12:45:18;34.97;;;16.83;;
75628;SDS011;64213;46.452;16.994;2022-10-31T12:52:01;33.97;;;17.67;;
75628;SDS011;64213;46.452;16.994;2022-10-31T12:58:53;32.70;;;16.58;;
75628;SDS011;64213;46.452;16.994;2022-10-31T13:08:34;31.90;;;17.00;;
75628;SDS011;64213;46.452;16.994;2022-10-31T13:11:43;30.62;;;15.57;;
75628;SDS011;64213;46.452;16.994;2022-10-31T13:15:01;34.75;;;16.70;;
75628;SDS011;64213;46.452;16.994;2022-10-31T13:18:16;33.30;;;16.57;;
75628;SDS011;64213;46.452;16.994;2022-10-31T13:31:25;31.25;;;15.75;;
75628;SDS011;64213;46.452;16.994;2022-10-31T13:34:37;30.17;;;14.20;;
75628;SDS011;64213;46.452;16.994;2022-10-31T13:41:12;31.90;;;14.90;;
75628;SDS011;64213;46.452;16.994;2022-10-31T13:44:22;32.35;;;14.35;;
75628;SDS011;64213;46.452;16.994;2022-10-31T13:47:27;32.92;;;15.02;;
75628;SDS011;64213;46.452;16.994;2022-10-31T13:50:31;30.83;;;15.83;;
75628;SDS011;64213;46.452;16.994;2022-10-31T13:53:35;30.08;;;13.15;;
75628;SDS011;64213;46.452;16.994;2022-10-31T13:56:39;30.85;;;14.25;;
75628;SDS011;64213;46.452;16.994;2022-10-31T13:59:45;30.60;;;14.77;;
75628;SDS011;64213;46.452;16.994;2022-10-31T14:02:55;31.98;;;16.52;;
75628;SDS011;64213;46.452;16.994;2022-10-31T14:05:58;28.93;;;13.43;;
75628;SDS011;64213;46.452;16.994;2022-10-31T14:09:01;30.27;;;14.73;;
75628;SDS011;64213;46.452;16.994;2022-10-31T14:12:05;27.17;;;14.68;;
75628;SDS011;64213;46.452;16.994;2022-10-31T14:15:23;28.20;;;14.40;;
75628;SDS011;64213;46.452;16.994;2022-10-31T14:18:34;29.48;;;14.87;;
75628;SDS011;64213;46.452;16.994;2022-10-31T14:21:46;30.97;;;14.10;;
75628;SDS011;64213;46.452;16.994;2022-10-31T14:24:49;27.52;;;13.65;;
75628;SDS011;64213;46.452;16.994;2022-10-31T14:27:51;32.80;;;15.57;;
75628;SDS011;64213;46.452;16.994;2022-10-31T14:30:55;33.10;;;14.63;;
75628;SDS011;64213;46.452;16.994;2022-10-31T14:33:59;30.40;;;15.18;;
75628;SDS011;64213;46.452;16.994;2022-10-31T14:43:46;29.23;;;12.30;;
75628;SDS011;64213;46.452;16.994;2022-10-31T14:46:57;32.08;;;14.75;;
75628;SDS011;64213;46.452;16.994;2022-10-31T14:53:49;31.37;;;13.83;;
75628;SDS011;64213;46.452;16.994;2022-10-31T14:56:55;30.70;;;14.35;;
75628;SDS011;64213;46.452;16.994;2022-10-31T15:00:04;31.92;;;15.88;;
75628;SDS011;64213;46.452;16.994;2022-10-31T15:03:12;30.55;;;15.27;;
75628;SDS011;64213;46.452;16.994;2022-10-31T15:06:22;34.45;;;14.48;;
75628;SDS011;64213;46.452;16.994;2022-10-31T15:09:30;31.33;;;14.43;;
75628;SDS011;64213;46.452;16.994;2022-10-31T15:12:34;31.33;;;14.25;;
75628;SDS011;64213;46.452;16.994;2022-10-31T15:15:40;30.12;;;14.57;;
75628;SDS011;64213;46.452;16.994;2022-10-31T15:18:49;35.33;;;15.50;;
75628;SDS011;64213;46.452;16.994;2022-10-31T15:21:55;31.70;;;15.45;;
75628;SDS011;64213;46.452;16.994;2022-10-31T15:24:58;34.37;;;14.23;;
75628;SDS011;64213;46.452;16.994;2022-10-31T15:28:00;31.98;;;14.27;;
75628;SDS011;64213;46.452;16.994;2022-10-31T15:31:03;36.78;;;16.02;;
75628;SDS011;64213;46.452;16.994;2022-10-31T15:34:11;33.55;;;14.73;;
75628;SDS011;64213;46.452;16.994;2022-10-31T15:37:19;34.15;;;14.95;;
75628;SDS011;64213;46.452;16.994;2022-10-31T15:40:26;37.07;;;16.37;;
75628;SDS011;64213;46.452;16.994;2022-10-31T15:43:31;33.42;;;15.23;;
75628;SDS011;64213;46.452;16.994;2022-10-31T15:46:37;35.53;;;15.40;;
75628;SDS011;64213;46.452;16.994;2022-10-31T15:49:58;33.30;;;14.98;;
75628;SDS011;64213;46.452;16.994;2022-10-31T15:53:01;37.33;;;15.35;;
75628;SDS011;64213;46.452;16.994;2022-10-31T15:56:07;39.90;;;15.03;;
75628;SDS011;64213;46.452;16.994;2022-10-31T15:59:22;36.17;;;15.65;;
75628;SDS011;64213;46.452;16.994;2022-10-31T16:02:28;37.72;;;15.60;;
75628;SDS011;64213;46.452;16.994;2022-10-31T16:05:38;37.22;;;16.37;;
75628;SDS011;64213;46.452;16.994;2022-10-31T16:08:50;40.10;;;16.35;;
75628;SDS011;64213;46.452;16.994;2022-10-31T16:11:52;37.37;;;15.33;;
75628;SDS011;64213;46.452;16.994;2022-10-31T16:14:58;38.03;;;16.25;;
75628;SDS011;64213;46.452;16.994;2022-10-31T16:18:00;42.38;;;16.40;;
75628;SDS011;64213;46.452;16.994;2022-10-31T16:21:10;41.05;;;16.77;;
75628;SDS011;64213;46.452;16.994;2022-10-31T16:24:23;37.10;;;16.83;;
75628;SDS011;64213;46.452;16.994;2022-10-31T16:27:30;33.70;;;15.73;;
75628;SDS011;64213;46.452;16.994;2022-10-31T16:30:38;36.90;;;16.35;;
75628;SDS011;64213;46.452;16.994;2022-10-31T16:33:48;39.05;;;16.25;;
75628;SDS011;64213;46.452;16.994;2022-10-31T16:36:50;34.83;;;16.27;;
75628;SDS011;64213;46.452;16.994;2022-10-31T16:39:52;41.08;;;17.25;;
75628;SDS011;64213;46.452;16.994;2022-10-31T16:42:56;41.40;;;19.00;;
75628;SDS011;64213;46.452;16.994;2022-10-31T16:45:59;44.83;;;18.08;;
75628;SDS011;64213;46.452;16.994;2022-10-31T16:49:02;39.38;;;17.12;;
75628;SDS011;64213;46.452;16.994;2022-10-31T16:52:04;44.35;;;16.92;;
75628;SDS011;64213;46.452;16.994;2022-10-31T16:55:10;41.30;;;17.87;;
75628;SDS011;64213;46.452;16.994;2022-10-31T16:58:17;38.97;;;16.63;;
75628;SDS011;64213;46.452;16.994;2022-10-31T17:01:23;47.38;;;18.65;;
75628;SDS011;64213;46.452;16.994;2022-10-31T17:04:25;41.90;;;17.48;;
75628;SDS011;64213;46.452;16.994;2022-10-31T17:07:28;42.90;;;18.12;;
75628;SDS011;64213;46.452;16.994;2022-10-31T17:10:30;40.22;;;17.37;;
75628;SDS011;64213;46.452;16.994;2022-10-31T17:13:33;44.50;;;20.27;;
75628;SDS011;64213;46.452;16.994;2022-10-31T17:16:35;51.25;;;23.12;;
75628;SDS011;64213;46.452;16.994;2022-10-31T17:19:38;38.33;;;18.17;;
75628;SDS011;64213;46.452;16.994;2022-10-31T17:22:40;36.63;;;17.35;;
75628;SDS011;64213;46.452;16.994;2022-10-31T17:25:43;34.08;;;16.58;;
75628;SDS011;64213;46.452;16.994;2022-10-31T17:28:46;34.77;;;14.73;;
75628;SDS011;64213;46.452;16.994;2022-10-31T17:31:49;36.28;;;16.70;;
75628;SDS011;64213;46.452;16.994;2022-10-31T17:34:52;42.00;;;18.80;;
75628;SDS011;64213;46.452;16.994;2022-10-31T17:37:54;40.47;;;17.77;;
75628;SDS011;64213;46.452;16.994;2022-10-31T17:40:57;44.80;;;17.02;;
75628;SDS011;64213;46.452;16.994;2022-10-31T17:44:01;49.43;;;19.30;;
75628;SDS011;64213;46.452;16.994;2022-10-31T17:47:04;46.50;;;18.05;;
75628;SDS011;64213;46.452;16.994;2022-10-31T17:50:07;42.80;;;13.32;;
75628;SDS011;64213;46.452;16.994;2022-10-31T17:53:10;48.67;;;16.55;;
75628;SDS011;64213;46.452;16.994;2022-10-31T17:56:15;50.97;;;17.55;;
75628;SDS011;64213;46.452;16.994;2022-10-31T17:59:26;51.87;;;17.20;;
75628;SDS011;64213;46.452;16.994;2022-10-31T18:02:33;59.03;;;20.42;;
75628;SDS011;64213;46.452;16.994;2022-10-31T18:05:37;72.05;;;21.40;;
75628;SDS011;64213;46.452;16.994;2022-10-31T18:08:40;61.20;;;19.02;;
75628;SDS011;64213;46.452;16.994;2022-10-31T18:11:44;77.10;;;18.67;;
75628;SDS011;64213;46.452;16.994;2022-10-31T18:14:47;53.23;;;16.67;;
75628;SDS011;64213;46.452;16.994;2022-10-31T18:17:50;77.80;;;16.75;;
75628;SDS011;64213;46.452;16.994;2022-10-31T18:20:55;67.62;;;16.70;;
75628;SDS011;64213;46.452;16.994;2022-10-31T18:23:59;41.22;;;16.77;;
75628;SDS011;64213;46.452;16.994;2022-10-31T18:27:05;50.83;;;19.17;;
75628;SDS011;64213;46.452;16.994;2022-10-31T18:30:08;53.83;;;18.53;;
75628;SDS011;64213;46.452;16.994;2022-10-31T18:33:13;42.08;;;16.65;;
75628;SDS011;64213;46.452;16.994;2022-10-31T18:36:15;64.10;;;16.15;;
75628;SDS011;64213;46.452;16.994;2022-10-31T18:39:19;50.72;;;14.98;;
75628;SDS011;64213;46.452;16.994;2022-10-31T18:42:22;52.62;;;15.98;;
75628;SDS011;64213;46.452;16.994;2022-10-31T18:45:25;43.60;;;15.07;;
75628;SDS011;64213;46.452;16.994;2022-10-31T18:48:48;33.90;;;9.18;;
75628;SDS011;64213;46.452;16.994;2022-10-31T18:51:51;43.72;;;14.35;;
75628;SDS011;64213;46.452;16.994;2022-10-31T18:54:54;30.08;;;11.02;;
75628;SDS011;64213;46.452;16.994;2022-10-31T18:57:57;35.92;;;14.30;;
75628;SDS011;64213;46.452;16.994;2022-10-31T19:01:04;40.00;;;15.07;;
75628;SDS011;64213;46.452;16.994;2022-10-31T19:04:10;49.08;;;17.02;;
75628;SDS011;64213;46.452;16.994;2022-10-31T19:07:13;41.53;;;15.25;;
75628;SDS011;64213;46.452;16.994;2022-10-31T19:10:16;54.05;;;16.10;;
75628;SDS011;64213;46.452;16.994;2022-10-31T19:13:20;53.85;;;16.42;;
75628;SDS011;64213;46.452;16.994;2022-10-31T19:16:23;43.60;;;16.10;;
75628;SDS011;64213;46.452;16.994;2022-10-31T19:19:27;37.05;;;14.20;;
75628;SDS011;64213;46.452;16.994;2022-10-31T19:22:30;40.90;;;15.50;;
75628;SDS011;64213;46.452;16.994;2022-10-31T19:25:33;44.17;;;15.57;;
75628;SDS011;64213;46.452;16.994;2022-10-31T19:28:38;43.50;;;16.60;;
75628;SDS011;64213;46.452;16.994;2022-10-31T19:31:42;44.00;;;15.77;;
75628;SDS011;64213;46.452;16.994;2022-10-31T19:34:45;41.05;;;15.77;;
75628;SDS011;64213;46.452;16.994;2022-10-31T19:37:48;43.58;;;16.75;;
75628;SDS011;64213;46.452;16.994;2022-10-31T19:40:55;43.28;;;16.48;;
75628;SDS011;64213;46.452;16.994;2022-10-31T19:44:11;44.25;;;16.20;;
75628;SDS011;64213;46.452;16.994;2022-10-31T19:47:17;45.73;;;15.47;;
75628;SDS011;64213;46.452;16.994;2022-10-31T19:50:20;39.63;;;14.85;;
75628;SDS011;64213;46.452;16.994;2022-10-31T19:53:24;42.22;;;16.15;;